createdAt,value
2022-11-26T00:02:18.962Z,99200.81
2022-11-26T00:05:07.756Z,99202.50
2022-11-26T00:07:57.651Z,99203.38
2022-11-26T00:10:45.597Z,99198.91
2022-11-26T00:13:34.780Z,99200.41
2022-11-26T00:16:22.809Z,99210.22
2022-11-26T00:19:10.914Z,99216.44
2022-11-26T00:21:58.866Z,99211.19
2022-11-26T00:24:46.586Z,99203.16
2022-11-26T00:27:34.741Z,99215.50
2022-11-26T00:30:26.264Z,99216.25
2022-11-26T00:33:14.334Z,99221.72
2022-11-26T00:36:05.447Z,99219.00
2022-11-26T00:38:56.226Z,99226.81
2022-11-26T00:41:46.894Z,99228.28
2022-11-26T00:44:34.726Z,99233.75
2022-11-26T00:47:23.946Z,99238.72
2022-11-26T00:50:16.530Z,99252.78
2022-11-26T00:53:05.460Z,99247.72
2022-11-26T00:55:53.639Z,99251.06
2022-11-26T00:58:41.375Z,99261.63
2022-11-26T01:01:29.722Z,99258.16
2022-11-26T01:04:18.662Z,99260.91
2022-11-26T01:07:06.663Z,99263.75
2022-11-26T01:09:54.567Z,99268.16
2022-11-26T01:12:42.418Z,99282.31
2022-11-26T01:15:30.459Z,99269.22
2022-11-26T01:18:20.754Z,99281.69
2022-11-26T01:21:11.319Z,99286.97
2022-11-26T01:23:59.201Z,99292.44
2022-11-26T01:26:46.819Z,99290.75
2022-11-26T01:29:34.838Z,99291.72
2022-11-26T01:32:28.022Z,99292.63
2022-11-26T01:35:18.021Z,99291.91
2022-11-26T01:38:07.665Z,99291.91
2022-11-26T01:41:08.971Z,99292.84
2022-11-26T01:43:59.480Z,99298.13
2022-11-26T01:46:47.481Z,99300.88
2022-11-26T01:49:36.924Z,99307.00
2022-11-26T01:52:27.555Z,99309.84
2022-11-26T01:55:18.762Z,99312.59
2022-11-26T01:58:10.359Z,99314.47
2022-11-26T02:00:59.003Z,99329.47
2022-11-26T02:03:55.746Z,99329.56
2022-11-26T02:06:45.938Z,99328.72
2022-11-26T02:09:33.930Z,99330.59
2022-11-26T02:12:23.485Z,99329.75
2022-11-26T02:15:15.480Z,99327.09
2022-11-26T02:18:08.380Z,99332.47
2022-11-26T02:21:04.271Z,99334.34
2022-11-26T02:24:32.767Z,99335.22
2022-11-26T02:27:54.163Z,99342.38
2022-11-26T02:30:51.293Z,99342.56
2022-11-26T02:33:53.239Z,99337.41
2022-11-26T02:37:08.253Z,99355.84
2022-11-26T02:39:59.961Z,99361.59
2022-11-26T02:42:50.025Z,99354.63
2022-11-26T02:45:45.275Z,99355.25
2022-11-26T02:48:40.333Z,99357.06
2022-11-26T02:51:53.539Z,99354.34
2022-11-26T02:54:51.645Z,99359.44
2022-11-26T02:58:02.086Z,99357.72
2022-11-26T03:00:54.673Z,99357.63
2022-11-26T03:07:37.814Z,99364.81
2022-11-26T03:10:35.716Z,99369.03
2022-11-26T03:13:23.635Z,99372.50
2022-11-26T03:16:17.385Z,99368.09
2022-11-26T03:19:34.350Z,99367.13
2022-11-26T03:25:30.511Z,99368.84
2022-11-26T03:28:24.749Z,99372.41
2022-11-26T03:31:28.664Z,99383.91
2022-11-26T03:34:30.166Z,99383.06
2022-11-26T03:40:26.091Z,99387.50
2022-11-26T03:43:15.211Z,99390.97
2022-11-26T03:46:07.320Z,99400.91
2022-11-26T03:49:00.173Z,99407.09
2022-11-26T03:51:56.080Z,99407.09
2022-11-26T03:55:07.762Z,99413.50
2022-11-26T03:58:00.232Z,99413.50
2022-11-26T04:00:54.963Z,99419.72
2022-11-26T04:03:45.611Z,99416.03
2022-11-26T04:06:44.562Z,99429.31
2022-11-26T04:09:40.021Z,99425.75
2022-11-26T04:12:27.906Z,99427.19
2022-11-26T04:15:22.153Z,99438.59
2022-11-26T04:18:09.811Z,99431.59
2022-11-26T04:20:57.826Z,99441.25
2022-11-26T04:23:45.759Z,99440.28
2022-11-26T04:26:39.526Z,99444.59
2022-11-26T04:29:31.332Z,99446.00
2022-11-26T04:32:26.900Z,99447.03
2022-11-26T04:35:23.302Z,99448.81
2022-11-26T04:38:11.924Z,99450.53
2022-11-26T04:41:18.845Z,99455.81
2022-11-26T04:44:14.623Z,99457.41
2022-11-26T04:47:06.322Z,99458.16
2022-11-26T04:49:56.114Z,99466.19
2022-11-26T04:52:59.482Z,99470.41
2022-11-26T04:55:53.911Z,99467.66
2022-11-26T04:58:46.337Z,99473.81
2022-11-26T05:01:51.608Z,99474.63
2022-11-26T05:04:42.222Z,99475.38
2022-11-26T05:07:31.904Z,99478.22
2022-11-26T05:10:21.619Z,99483.50
2022-11-26T05:16:45.992Z,99484.16
2022-11-26T05:19:36.390Z,99495.63
2022-11-26T05:22:24.429Z,99495.63
2022-11-26T05:25:12.745Z,99503.75
2022-11-26T05:28:08.493Z,99506.38
2022-11-26T05:31:09.095Z,99510.75
2022-11-26T05:33:56.680Z,99515.16
2022-11-26T05:36:48.872Z,99517.03
2022-11-26T05:39:52.945Z,99517.13
2022-11-26T05:42:41.598Z,99527.69
2022-11-26T05:45:30.935Z,99526.78
2022-11-26T05:48:20.255Z,99525.06
2022-11-26T05:51:10.324Z,99527.59
2022-11-26T05:53:59.357Z,99523.38
2022-11-26T05:56:59.776Z,99535.63
2022-11-26T05:59:58.318Z,99533.72
2022-11-26T06:02:47.559Z,99532.06
2022-11-26T06:05:35.338Z,99537.34
2022-11-26T06:08:23.313Z,99533.72
2022-11-26T06:11:15.353Z,99537.34
2022-11-26T06:14:05.728Z,99536.28
2022-11-26T06:20:27.157Z,99537.03
2022-11-26T06:23:15.326Z,99545.78
2022-11-26T06:26:09.038Z,99547.50
2022-11-26T06:28:58.194Z,99548.31
2022-11-26T06:35:08.137Z,99545.69
2022-11-26T06:37:55.943Z,99553.59
2022-11-26T06:40:43.866Z,99565.13
2022-11-26T06:43:32.878Z,99563.44
2022-11-26T06:46:23.431Z,99568.81
2022-11-26T06:49:13.294Z,99572.38
2022-11-26T06:52:30.246Z,99580.38
2022-11-26T06:55:35.082Z,99585.84
2022-11-26T06:58:40.369Z,99590.41
2022-11-26T07:01:34.183Z,99590.47
2022-11-26T07:04:22.135Z,99590.56
2022-11-26T07:07:10.308Z,99591.50
2022-11-26T07:09:58.218Z,99593.41
2022-11-26T07:12:48.247Z,99596.13
2022-11-26T07:15:38.684Z,99591.03
2022-11-26T07:18:39.975Z,99598.16
2022-11-26T07:21:29.388Z,99594.97
2022-11-26T07:24:22.631Z,99589.91
2022-11-26T07:27:10.186Z,99600.63
2022-11-26T07:29:58.204Z,99604.41
2022-11-26T07:32:46.217Z,99605.50
2022-11-26T07:35:45.757Z,99610.03
2022-11-26T07:38:37.856Z,99614.56
2022-11-26T07:41:41.860Z,99621.69
2022-11-26T07:44:35.218Z,99623.59
2022-11-26T07:47:31.738Z,99622.84
2022-11-26T07:50:21.305Z,99624.72
2022-11-26T07:53:13.261Z,99638.00
2022-11-26T07:56:01.040Z,99639.78
2022-11-26T07:58:49.201Z,99652.97
2022-11-26T08:01:38.698Z,99649.38
2022-11-26T08:04:29.365Z,99655.50
2022-11-26T08:07:23.348Z,99658.06
2022-11-26T08:10:17.067Z,99657.03
2022-11-26T08:13:05.034Z,99663.16
2022-11-26T08:15:52.803Z,99669.16
2022-11-26T08:18:44.222Z,99665.16
2022-11-26T08:21:31.959Z,99674.31
2022-11-26T08:24:22.698Z,99678.06
2022-11-26T08:27:14.284Z,99685.22
2022-11-26T08:30:05.182Z,99686.91
2022-11-26T08:32:52.784Z,99692.84
2022-11-26T08:36:05.589Z,99694.94
2022-11-26T08:38:48.373Z,99699.81
2022-11-26T08:41:36.291Z,99713.91
2022-11-26T08:44:27.817Z,99718.38
2022-11-26T08:47:15.862Z,99709.41
2022-11-26T08:50:04.096Z,99712.22
2022-11-26T08:53:01.910Z,99713.19
2022-11-26T08:56:00.192Z,99725.84
2022-11-26T08:58:49.315Z,99726.56
2022-11-26T09:01:38.748Z,99730.66
2022-11-26T09:04:28.053Z,99738.28
2022-11-26T09:07:19.911Z,99744.22
2022-11-26T09:10:09.145Z,99748.25
2022-11-26T09:12:56.872Z,99739.97
2022-11-26T09:15:44.589Z,99748.56
2022-11-26T09:18:34.268Z,99741.41
2022-11-26T09:21:22.726Z,99749.03
2022-11-26T09:24:10.912Z,99748.84
2022-11-26T09:27:02.781Z,99755.66
2022-11-26T09:29:54.162Z,99752.81
2022-11-26T09:32:44.200Z,99755.38
2022-11-26T09:35:34.797Z,99758.66
2022-11-26T09:38:23.564Z,99752.22
2022-11-26T09:41:27.797Z,99752.03
2022-11-26T09:44:42.808Z,99748.28
2022-11-26T09:47:38.262Z,99749.00
2022-11-26T09:50:31.757Z,99750.50
2022-11-26T09:53:25.507Z,99747.66
2022-11-26T09:56:25.517Z,99743.03
2022-11-26T09:59:18.584Z,99746.56
2022-11-26T10:02:13.244Z,99740.97
2022-11-26T10:05:01.549Z,99741.72
2022-11-26T10:07:59.592Z,99751.25
2022-11-26T10:10:57.819Z,99747.66
2022-11-26T10:14:01.942Z,99747.66
2022-11-26T10:17:03.147Z,99746.59
2022-11-26T10:20:04.922Z,99756.88
2022-11-26T10:22:59.520Z,99747.91
2022-11-26T10:25:55.823Z,99748.75
2022-11-26T10:28:47.244Z,99746.03
2022-11-26T10:31:41.952Z,99749.53
2022-11-26T10:34:39.313Z,99746.59
2022-11-26T10:37:30.660Z,99750.81
2022-11-26T10:40:24.508Z,99742.69
2022-11-26T10:43:19.988Z,99754.75
2022-11-26T10:46:08.016Z,99743.97
2022-11-26T10:48:55.913Z,99744.75
2022-11-26T10:51:49.195Z,99743.69
2022-11-26T10:54:45.440Z,99738.31
2022-11-26T10:57:34.803Z,99736.38
2022-11-26T11:00:35.037Z,99736.28
2022-11-26T11:03:59.776Z,99748.47
2022-11-26T11:06:42.586Z,99750.16
2022-11-26T11:09:33.626Z,99739.50
2022-11-26T11:12:23.759Z,99739.59
2022-11-26T11:15:25.150Z,99735.97
2022-11-26T11:18:33.577Z,99736.09
2022-11-26T11:21:22.679Z,99746.47
2022-11-26T11:24:16.606Z,99742.78
2022-11-26T11:27:04.362Z,99745.25
2022-11-26T11:29:52.937Z,99744.06
2022-11-26T11:32:44.509Z,99737.81
2022-11-26T11:35:35.667Z,99728.94
2022-11-26T11:38:27.923Z,99738.38
2022-11-26T11:41:26.114Z,99741.75
2022-11-26T11:44:18.614Z,99746.84
2022-11-26T11:47:37.302Z,99737.78
2022-11-26T11:50:32.649Z,99738.59
2022-11-26T11:53:35.383Z,99741.16
2022-11-26T11:56:29.768Z,99732.03
2022-11-26T11:59:59.707Z,99742.44
2022-11-26T12:03:09.314Z,99741.50
2022-11-26T12:06:13.793Z,99737.78
2022-11-26T12:09:17.483Z,99745.94
2022-11-26T12:12:13.677Z,99742.22
2022-11-26T12:15:09.220Z,99745.63
2022-11-26T12:18:02.588Z,99739.38
2022-11-26T12:20:55.232Z,99739.28
2022-11-26T12:23:50.728Z,99740.34
2022-11-26T12:26:48.374Z,99741.09
2022-11-26T12:29:42.927Z,99742.97
2022-11-26T12:32:40.085Z,99743.75
2022-11-26T12:35:35.203Z,99736.53
2022-11-26T12:38:31.168Z,99736.41
2022-11-26T12:41:25.565Z,99735.47
2022-11-26T12:44:37.289Z,99739.81
2022-11-26T12:47:32.871Z,99730.16
2022-11-26T12:50:35.272Z,99740.13
2022-11-26T12:53:35.174Z,99738.25
2022-11-26T12:56:31.573Z,99735.59
2022-11-26T12:59:27.555Z,99736.22
2022-11-26T13:02:21.575Z,99732.50
2022-11-26T13:05:16.232Z,99735.91
2022-11-26T13:08:26.058Z,99733.06
2022-11-26T13:11:27.487Z,99731.16
2022-11-26T13:14:26.448Z,99728.50
2022-11-26T13:17:21.499Z,99735.28
2022-11-26T13:20:24.386Z,99722.78
2022-11-26T13:23:26.288Z,99715.56
2022-11-26T13:26:45.456Z,99720.88
2022-11-26T13:29:59.534Z,99719.81
2022-11-26T13:33:20.151Z,99729.38
2022-11-26T13:36:37.681Z,99724.78
2022-11-26T13:39:51.202Z,99720.47
2022-11-26T13:42:48.534Z,99723.22
2022-11-26T13:46:10.459Z,99723.31
2022-11-26T13:49:02.899Z,99717.91
2022-11-26T13:51:56.982Z,99724.06
2022-11-26T13:54:50.985Z,99732.22
2022-11-26T13:57:44.317Z,99734.00
2022-11-26T14:00:34.472Z,99724.28
2022-11-26T14:03:45.972Z,99726.94
2022-11-26T14:06:33.805Z,99725.31
2022-11-26T14:09:49.808Z,99729.78
2022-11-26T14:13:12.626Z,99723.53
2022-11-26T14:16:04.852Z,99720.88
2022-11-26T14:19:00.508Z,99729.69
2022-11-26T14:22:06.213Z,99728.81
2022-11-26T14:25:00.034Z,99732.31
2022-11-26T14:27:55.603Z,99730.59
2022-11-26T14:30:45.847Z,99728.91
2022-11-26T14:33:36.096Z,99736.97
2022-11-26T14:36:27.723Z,99737.94
2022-11-26T14:39:17.067Z,99750.41
2022-11-26T14:42:06.607Z,99747.88
2022-11-26T14:45:05.651Z,99754.22
2022-11-26T14:47:55.984Z,99753.47
2022-11-26T14:50:45.417Z,99757.09
2022-11-26T14:53:35.879Z,99759.94
2022-11-26T14:56:26.303Z,99753.88
2022-11-26T14:59:18.784Z,99756.63
2022-11-26T15:02:22.778Z,99759.50
2022-11-26T15:05:17.265Z,99756.22
2022-11-26T15:08:07.164Z,99762.56
2022-11-26T15:11:18.700Z,99756.63
2022-11-26T15:14:23.987Z,99762.13
2022-11-26T15:17:16.752Z,99763.19
2022-11-26T15:20:12.347Z,99773.97
2022-11-26T15:23:03.634Z,99772.38
2022-11-26T15:25:55.853Z,99762.09
2022-11-26T15:28:45.583Z,99766.72
2022-11-26T15:31:43.517Z,99765.25
2022-11-26T15:34:33.256Z,99767.22
2022-11-26T15:37:21.680Z,99762.22
2022-11-26T15:40:20.088Z,99764.16
2022-11-26T15:43:18.427Z,99762.63
2022-11-26T15:46:16.213Z,99763.78
2022-11-26T15:49:07.500Z,99769.28
2022-11-26T15:52:00.861Z,99772.13
2022-11-26T15:55:11.956Z,99772.31
2022-11-26T15:58:03.843Z,99773.47
2022-11-26T16:00:55.577Z,99772.69
2022-11-26T16:03:47.051Z,99780.84
2022-11-26T16:06:37.108Z,99784.53
2022-11-26T16:09:28.127Z,99783.88
2022-11-26T16:12:31.492Z,99784.09
2022-11-26T16:15:35.307Z,99786.91
2022-11-26T16:18:26.574Z,99784.47
2022-11-26T16:21:22.220Z,99788.16
2022-11-26T16:24:27.095Z,99784.84
2022-11-26T16:27:29.849Z,99784.84
2022-11-26T16:30:21.210Z,99784.28
2022-11-26T16:33:09.454Z,99794.94
2022-11-26T16:36:00.328Z,99782.78
2022-11-26T16:39:11.866Z,99780.34
2022-11-26T16:41:59.834Z,99784.84
2022-11-26T16:44:48.116Z,99781.47
2022-11-26T16:47:39.431Z,99770.16
2022-11-26T16:50:28.634Z,99779.03
2022-11-26T16:53:16.310Z,99775.63
2022-11-26T16:56:06.463Z,99775.81
2022-11-26T16:58:55.013Z,99774.97
2022-11-26T17:01:45.639Z,99770.72
2022-11-26T17:04:33.554Z,99772.63
2022-11-26T17:07:24.481Z,99775.34
2022-11-26T17:13:57.561Z,99779.97
2022-11-26T17:16:45.274Z,99784.41
2022-11-26T17:19:33.493Z,99780.16
2022-11-26T17:22:21.433Z,99775.81
2022-11-26T17:25:10.566Z,99782.97
2022-11-26T17:27:58.597Z,99777.78
2022-11-26T17:30:48.015Z,99785.81
2022-11-26T17:33:36.253Z,99776.28
2022-11-26T17:36:24.754Z,99782.53
2022-11-26T17:39:13.057Z,99778.25
2022-11-26T17:42:00.857Z,99779.22
2022-11-26T17:44:49.230Z,99779.31
2022-11-26T17:47:38.778Z,99786.41
2022-11-26T17:50:28.649Z,99783.00
2022-11-26T17:53:16.653Z,99784.88
2022-11-26T17:56:04.603Z,99791.09
2022-11-26T17:59:04.540Z,99785.03
2022-11-26T18:01:52.569Z,99787.78
2022-11-26T18:04:41.803Z,99781.75
2022-11-26T18:07:29.550Z,99784.50
2022-11-26T18:10:22.391Z,99780.13
2022-11-26T18:13:10.788Z,99775.81
2022-11-26T18:16:02.335Z,99787.41
2022-11-26T18:18:50.637Z,99781.44
2022-11-26T18:21:40.396Z,99787.09
2022-11-26T18:24:28.201Z,99789.75
2022-11-26T18:27:23.604Z,99787.09
2022-11-26T18:30:12.372Z,99793.31
2022-11-26T18:33:01.952Z,99786.34
2022-11-26T18:35:52.531Z,99783.91
2022-11-26T18:38:44.926Z,99790.97
2022-11-26T18:41:32.998Z,99798.13
2022-11-26T18:44:20.897Z,99796.41
2022-11-26T18:47:09.448Z,99798.50
2022-11-26T18:49:57.732Z,99796.78
2022-11-26T18:52:45.897Z,99794.22
2022-11-26T18:55:40.529Z,99795.28
2022-11-26T18:58:28.561Z,99781.38
2022-11-26T19:01:24.659Z,99778.75
2022-11-26T19:04:13.139Z,99773.69
2022-11-26T19:07:00.963Z,99765.00
2022-11-26T19:09:49.233Z,99763.47
2022-11-26T19:12:48.915Z,99762.59
2022-11-26T19:15:43.136Z,99762.78
2022-11-26T19:21:34.477Z,99779.66
2022-11-26T19:24:22.617Z,99774.53
2022-11-26T19:27:13.843Z,99771.13
2022-11-26T19:30:04.396Z,99772.19
2022-11-26T19:32:54.517Z,99779.31
2022-11-26T19:35:43.964Z,99768.13
2022-11-26T19:38:35.938Z,99767.44
2022-11-26T19:41:25.823Z,99766.75
2022-11-26T19:44:16.404Z,99755.47
2022-11-26T19:47:06.825Z,99766.19
2022-11-26T19:49:54.901Z,99764.56
2022-11-26T19:52:47.921Z,99766.34
2022-11-26T19:55:35.987Z,99764.84
2022-11-26T19:58:27.156Z,99766.78
2022-11-26T20:01:23.114Z,99760.81
2022-11-26T20:04:17.487Z,99747.09
2022-11-26T20:07:05.085Z,99742.06
2022-11-26T20:09:53.407Z,99744.19
2022-11-26T20:12:42.012Z,99748.72
2022-11-26T20:15:43.512Z,99756.03
2022-11-26T20:18:31.308Z,99753.56
2022-11-26T20:21:22.397Z,99753.91
2022-11-26T20:24:20.042Z,99751.53
2022-11-26T20:27:10.687Z,99756.28
2022-11-26T20:30:06.856Z,99755.78
2022-11-26T20:32:56.327Z,99750.94
2022-11-26T20:35:48.029Z,99755.59
2022-11-26T20:38:38.801Z,99749.00
2022-11-26T20:41:29.216Z,99748.44
2022-11-26T20:44:29.195Z,99744.53
2022-11-26T20:47:19.918Z,99747.66
2022-11-26T20:50:12.269Z,99748.94
2022-11-26T20:53:00.191Z,99745.88
2022-11-26T20:55:58.864Z,99740.16
2022-11-26T20:59:04.205Z,99742.25
2022-11-26T21:01:58.226Z,99727.78
2022-11-26T21:04:48.339Z,99735.25
2022-11-26T21:07:36.422Z,99740.84
2022-11-26T21:10:30.833Z,99738.66
2022-11-26T21:13:37.902Z,99738.22
2022-11-26T21:16:25.875Z,99739.38
2022-11-26T21:19:15.046Z,99739.75
2022-11-26T21:22:04.672Z,99744.56
2022-11-26T21:24:55.739Z,99739.59
2022-11-26T21:27:52.919Z,99736.53
2022-11-26T21:30:44.937Z,99740.34
2022-11-26T21:33:34.750Z,99738.97
2022-11-26T21:36:25.945Z,99734.00
2022-11-26T21:39:16.942Z,99740.41
2022-11-26T21:42:13.699Z,99739.84
2022-11-26T21:45:01.709Z,99739.31
2022-11-26T21:47:55.435Z,99742.31
2022-11-26T21:50:43.416Z,99740.91
2022-11-26T21:53:31.793Z,99740.31
2022-11-26T21:56:27.240Z,99741.47
2022-11-26T21:59:15.503Z,99738.22
2022-11-26T22:02:05.207Z,99741.06
2022-11-26T22:04:54.469Z,99752.69
2022-11-26T22:07:42.830Z,99750.34
2022-11-26T22:10:35.937Z,99762.84
2022-11-26T22:13:24.207Z,99757.78
2022-11-26T22:16:13.632Z,99754.50
2022-11-26T22:19:02.391Z,99750.25
2022-11-26T22:21:53.350Z,99751.31
2022-11-26T22:25:01.762Z,99763.72
2022-11-26T22:27:49.828Z,99767.41
2022-11-26T22:31:10.652Z,99766.69
2022-11-26T22:34:02.599Z,99758.19
2022-11-26T22:36:57.875Z,99766.19
2022-11-26T22:39:52.450Z,99757.59
2022-11-26T22:42:42.368Z,99764.75
2022-11-26T22:46:10.720Z,99757.84
2022-11-26T22:49:01.504Z,99758.00
2022-11-26T22:51:56.907Z,99765.16
2022-11-26T22:54:46.037Z,99775.03
2022-11-26T23:01:20.323Z,99768.25
2022-11-26T23:04:10.112Z,99758.75
2022-11-26T23:06:58.253Z,99758.81
2022-11-26T23:09:54.581Z,99759.94
2022-11-26T23:16:15.073Z,99768.69
2022-11-26T23:19:07.228Z,99768.69
2022-11-26T23:21:55.020Z,99767.88
2022-11-26T23:25:30.565Z,99761.81
2022-11-26T23:29:05.519Z,99767.94
2022-11-26T23:31:58.272Z,99767.00
2022-11-26T23:34:48.198Z,99753.97
2022-11-26T23:37:36.077Z,99755.78
2022-11-26T23:40:41.774Z,99759.25
2022-11-26T23:43:30.276Z,99759.31
2022-11-26T23:46:34.241Z,99747.97
2022-11-26T23:49:47.776Z,99749.84
2022-11-26T23:52:40.364Z,99746.16
2022-11-26T23:56:02.993Z,99737.38
2022-11-26T23:58:51.686Z,99733.00
